Timeline UpdatesTrip UpdatesNews PostsPvt PostsTravel TipsAdmin PostsConv PostsFollowed PostsChat RequestsBlog PostsPNR Posts

Disclaimer
Search
 
 
Thu Aug 21, 2014 13:44:06 ISTHomeTrainsΣChainsAtlasPNRForumGalleryNewsFAQTripsMembersLoginFeedback
No Recent News for this Train
Other Trains in the News **new
Latest...
Train leaving its originating station on 20/07 will be diverted to run via Gorakhpur-Kaptanganj-Thane-Siwan instead of existing route via Gorakhpur-Deoria Sadar-Bhatni-Siwan
Fri Jul 11, 2014 (07:51AM)
⇐ Return Journey: Train# 15707

15708/Amrapali Express

Feb 22 2014 (1:17PM)
Change Departure Station:
Change Arrival Station:
Post a Train Travel TipPost a Train Travel Tip **new
Post a Comment/Question/Picture/VideoPost a Comment/Question/Picture/Video
Pantry/Catering
✕ NO Pantry Car
✓ Catering Avbl
RSA - Rake Sharing
This train has 5 rakes in all, and has on-board cleaning system available. ; Charging points available in AC-2 tier, one in each coupe.
Rake/Coach Composition
LOCO«SLR-GN-GN-GN-GN-Gn-S9-S8-S7-S6-S5-S4-S3-S2-S1-B1-A1-GN-GN-GN-GN-SLR=22 Coach Train. S9 becomes S1 in UP train.
Loco
ASR-LKO> CNB WAP4 LKO-KIR> SGUJ WDP4
News    PNR    Forum    Time-Table    Availability    Fare Chart    Map    Arr/Dep History    Trips    Gallery    ΣChains    X/O    Timeline    
Travel Time: 1h 38m    2 halts    Distance: 58 km    Avg Speed: 35 km/hr
Type: Mail/Express
Zone: NFR/Northeast Frontier
Departs @ 18:32
Platform# ???
SMTWTFS
Naugachia/NNA 
Arrives @ 20:10
Platform# 1
SMTWTFS
Katihar Junction/KIR 

2 halts. 6 intermediate Stations between Naugachia and Katihar Junction

Show ALL intermediate Stations  Show Old Time-Table

#CodeStation NameX/OArrivesAvgDepartsAvgHaltPFDay#KmSpeedElevZoneAddress
1ASRAmritsar Junction (5)  -07:15-31-1740.882233mNRAmritsar 143002, Punjab
2JNLJandiala (2)X  07:29-07:31-2m21-1721.684238mNRJandiala, Punjab
3BEASBeas Junction (2)  07:48-07:50-2m21-1697.861238mNRBeas, Punjab
4KREKartarpur (2)X  08:11-08:13-2m11-1676.352236mNRKartarpur, Punjab
5JUCJalandhar City Junction (5)X  08:30-08:35-5m21-1661.726239mNRJalandhar 144001, Punjab
6JRCJalandhar Cantt. Junction (3)X  08:46-08:48-2m21-1656.965239mNRNear Rama Mandi, Punjab
7PGWPhagwara Junction (3)X  09:03-09:05-2m11-1640.659245mNRPhagwara, Punjab
8GRYGoraya (2)X  09:15-09:17-2m11-1630.769240mNRGoraya, Punjab
9PHRPhillaur Junction (3)  09:28-09:30-2m11-1618.052246mNRPhillaur, Punjab
10LDHLudhiana Junction (7)X  09:45-09:55-10m11-1604.957246mNRLudhiana 141001, Punjab
11KNNKhanna (3)X  10:40-10:42-2m21-1562.167269mNRNH 1, Punjab
12SIRSirhind Junction (3)  10:58-11:00-2m21-1544.283271mNRSirhind, Punjab
13RPJRajpura Junction (3)11:18-11:20-2m21-1519.348272mNRNH-1, Punjab
14UMBAmbala Cantt. Junction (7)  11:55-12:00-5m61-1491.381278mNRAmbala 133001, Haryana
15KUNKarnal (3)X  12:56-12:58-2m11-1416.174253mNRKarnal, Haryana
16PNPPanipat Junction (5)X  13:26-13:28-2m11-1381.785235mNRPanipat, Haryana
17SNPSonipat (3)X  14:00-14:02-2m11-1336.569225mNRSonipat, Haryana
18SZMDelhi Sabzi Mandi (2)  14:37-14:39-2m--1-1296.27220mNRGulabi Bagh, Delhi NCT
19DLIOld Delhi Junction (16)XO  15:05-15:20-15m111-1293.258219mNRNear Chandni Chowk Metro Station, Delhi NCT
20KRJKhurja Junction (4)X16:45-16:47-2m--1-1210.5109199mNCRBulandshahr, Uttar Pradesh
21ALJNAligarh Junction (4)XO  17:11-17:16-5m21-1167.039192mNCRAligarh, Uttar Pradesh
22HRSHathras Junction (3)X  18:02-18:04-2m21-1136.861183mNCRMahamaya Nagar(05722-242803), Uttar Pradesh
23TDLTundla Junction (5)XO  18:51-18:56-5m--1-1088.841167mNCRDistt.Firozabad, Uttar Pradesh
24FZDFirozabad (4)X  19:20-19:22-2m21-1072.355164mNCRFirozabad, Uttar Pradesh
25ETWEtawah (5)O  20:44-20:46-2m31-997.070154mNCRDistt. Etawah, Uttar Pradesh
26CNBKanpur Central (10)X  22:45-23:00-15m--1-857.650128mNCRKANPUR-208 001, Uttar Pradesh
27ONUnnao Junction (5)X  23:21-23:23-2m--1-840.253129mNRUnnao, Uttar Pradesh
28LKOLucknow Charbagh (9)X  00:25-00:50-25m12-785.738123mNR226004, Uttar Pradesh
29BBKBarabanki Junction (4)  01:35-01:37-2m--2-757.169122mNRPin-225001, Uttar Pradesh
30GDGonda Junction (3)X  02:55-03:00-5m22-667.880110mNERGonda 271001, Uttar Pradesh
31MURMankapur Junction (5)X03:21-03:23-2m--2-639.986104mNERDistrict Gonda, Uttar Pradesh
32BSTBasti (4)  04:05-04:10-5m--2-579.48490mNERBasti 272001, Uttar Pradesh
33KLDKhalilabad (3)X  04:31-04:33-2m--2-549.82886mNERKhalilabad- 272175, Uttar Pradesh
34GKPGorakhpur Junction (10)  05:45-06:00-15m72-515.96484mNERGorakhpur 273001, Uttar Pradesh
35DEOSDeoria Sadar (3)X  06:46-06:48-2m22-466.85179mNERDeoria- 274001, Uttar Pradesh
36SVSiwan Junction (4)  08:10-08:15-5m12-397.34170mNERSiwan, Bihar
37CPRChhapra Junction (6)X  09:45-10:05-20m--2-336.16458mNERDistt: Saran, Bihar
38SEESonpur Junction (4)X  10:56-11:03-7m--2-282.02556mECRSaran, Bihar
39HJPHajipur Junction (3)X  11:16-11:18-2m--2-276.53355mECR06224-272230, Bihar
40MFPMuzaffarpur Junction (6)  12:55-13:05-10m32-222.77257mECRMuzaffarpur, Bihar
41DOLDholi (2)  13:26-13:28-2m--2-197.667 ECRDistt. Muzaffarpur, Bihar
42KRBPKhudiram B Pusa  13:40-13:42-2m--2-184.23652mECRDistt. Samastipur, Bihar
43SPJSamastipur Junction (9)  14:05-14:13-8m--2-170.64255mECRSamastipur, Bihar
44BJUBarauni Junction (9)  15:25-15:35-10m52-120.04049mECRBegusarai, Bihar
45BGSBegu Sarai (3)  15:55-15:57-2m22-106.644 ECRBegusarai, Bihar
46KGGKhagaria Junction (3)  16:51-16:53-2m22-66.74843mECRKhagaria, Bihar
47MNEMansi Junction (3)X  17:04-17:06-2m--2-57.94143mECRMansi, Bihar
48THBThana Bihpur JunctionX  18:08-18:10-2m--2-15.94839mECRThana Bihpur, Bihar
49NNA»Naugachia»X  18:30-18:32-2m--20.04637mECRBhagalpur, Bihar
50KUEKursela  18:56-18:58-2m--218.53431mECRNH 31, Bihar
51CRRKaragola RoadX  19:28-19:30-2m--235.53336mECRLachhmipur, Bihar
52KIR•Katihar Junction (7)•  20:10--1257.8-35mNFRKatihar 854105, Bihar
Scroll to Top
Scroll to Bottom